Bridgeport Valley, California Weather observations

Data are for 10 minute period ending at time listed.
 Day   Time   Solar   Ave.   Ave.  Ave.  Vector  Max.   Baro.   Total    
  of    of     Rad.   Air    Rel.  Wind   Wind   Wind  Press.  Precip.   
Year   Day            Temp.  Hum.  Speed  Dir.   Gust                    
2016   (PST)  Kw/m2    F      %     mph   deg.    mph    mb.     in.     
-------------------------------------------------------------------------
 181    0:00   0.00   53.9    85    1.2   269     1.9   807.9    0.00 
 181    0:10   0.00   53.7    85    2.1   245     3.4   807.8    0.00 
 181    0:20   0.00   54.2    79    2.4   171     4.1   807.8    0.00 
 181    0:30   0.00   53.2    80    2.5   156     3.4   807.7    0.00 
 181    0:40   0.00   51.1    86    2.5   196     3.1   807.6    0.00 
 181    0:50   0.00   51.3    87    3.6   224     4.9   807.6    0.00 
 181    1:00   0.00   52.2    84    2.7   233     3.8   807.5    0.00 
 181    1:10   0.00   52.6    83    1.9   257     3.5   807.5    0.00 
 181    1:20   0.00   53.3    76    2.1   180     4.4   807.4    0.00 
 181    1:30   0.00   51.5    76    3.5   189     4.7   807.4    0.00 
 181    1:40   0.00   51.0    79    3.0   216     4.8   807.3    0.00 
 181    1:50   0.00   51.9    78    3.4   198     4.5   807.3    0.00 
 181    2:00   0.00   48.8    85    2.6   175     3.8   807.2    0.00 
 181    2:10   0.00   47.4    90    2.6   177     3.7   807.1    0.00 
 181    2:20   0.00   48.1    91    2.8   195     4.3   807.0    0.00 
 181    2:30   0.00   49.2    86    1.3   187     2.9   807.0    0.00 
 181    2:40   0.00   49.6    87    0.8   294     2.0   807.0    0.00 
 181    2:50   0.00   49.7    86    1.5   209     3.2   807.1    0.00 
 181    3:00   0.00   49.9    82    3.1   233     4.4   807.0    0.00 
 181    3:10   0.00   49.1    82    2.8   186     4.3   807.1    0.00 
 181    3:20   0.00   48.2    83    2.4   197     3.4   807.2    0.00 
 181    3:30   0.00   46.3    90    3.5   216     4.5   807.1    0.00 
 181    3:40   0.00   47.1    90    2.7   224     4.2   807.1    0.00 
 181    3:50   0.00   48.2    86    2.1   108     3.9   807.1    0.00 
 181    4:00   0.00   47.1    91    0.4   266     1.5   807.0    0.00 
 181    4:10   0.00   46.4    91    1.8    59     4.1   807.1    0.00 
 181    4:20   0.00   45.8    92    0.3   334     1.5   807.0    0.00 
 181    4:30   0.00   46.9    90    2.2   285     4.2   807.1    0.00 
 181    4:40   0.00   46.5    90    3.5   246     5.3   807.1    0.00 
 181    4:50   0.00   47.3    92    2.7   271     4.7   807.3    0.00 
 181    5:00   0.01   47.0    89    1.8   181     2.9   807.4    0.00 
 181    5:10   0.01   45.6    91    1.9   201     2.9   807.4    0.00 
 181    5:20   0.03   46.0    93    1.6   209     2.4   807.4    0.00 
 181    5:30   0.02   47.0    93    1.8   106     3.9   807.5    0.00 
 181    5:40   0.08   47.9    93    1.4    80     2.8   807.4    0.00 
 181    5:50   0.08   51.0    88    1.4   111     2.3   807.4    0.00 
 181    6:00   0.07   51.6    85    2.1    87     3.7   807.5    0.00 
 181    6:10   0.05   51.4    84    0.9   252     3.0   807.5    0.00 
 181    6:20   0.11   51.6    86    2.1   284     3.4   807.6    0.00 
 181    6:30   0.09   52.6    83    1.3   260     2.5   807.7    0.00 
 181    6:40   0.08   53.5    83    1.2   250     1.8   807.7    0.00 
 181    6:50   0.08   53.9    83    2.2   276     3.4   807.8    0.00 
 181    7:00   0.21   54.1    83    2.6   279     5.2   807.8    0.00 
 181    7:10   0.19   55.2    79    3.1   267     4.7   807.8    0.00 
 181    7:20   0.34   58.2    68    1.9   265     3.3   807.7    0.00 
 181    7:30   0.27   61.9    57    0.1   227     1.0   807.7    0.00 
 181    7:40   0.41   64.6    53    1.2   115     2.6   807.7    0.00 
 181    7:50   0.56   65.3    52    1.1    68     2.9   807.7    0.00 
 181    8:00   0.58   66.2    53    0.8    46     2.0   807.6    0.00 
 181    8:10   0.54   67.7    51    1.5    61     2.9   807.4    0.00 
 181    8:20   0.59   69.0    48    1.2    55     2.9   807.3    0.00 
 181    8:30   0.68   70.3    45    1.9    56     4.2   807.3    0.00 
 181    8:40   0.71   70.6    45    2.1    20     4.2   807.1    0.00 
 181    8:50   0.43   71.9    42    0.7     5     2.6   807.0    0.00 
 181    9:00   0.74   72.6    41    1.6   335     3.8   806.9    0.00 
 181    9:10   0.82   73.4    42    1.3    27     3.4   806.7    0.00 
 181    9:20   0.87   74.6    42    1.5   353     3.3   806.6    0.00 
 181    9:30   0.37   75.6    40    1.0   305     2.7   806.6    0.00 
 181    9:40   0.68   75.2    43    1.6   263     3.8   806.5    0.00 
 181    9:50   0.53   76.4    42    1.4   319     3.9   806.5    0.00 
 181   10:00   0.91   77.7    39    0.8   259     2.3   806.5    0.00 
 181   10:10   0.89   79.3    32    0.7   302     1.8   806.4    0.00 
 181   10:20   0.99   79.2    31    1.2   286     3.9   806.5    0.00 
 181   10:30   1.06   81.2    32    1.1    27     3.0   806.5    0.00 
 181   10:40   0.84   81.1    28    2.1   305     4.0   806.5    0.00 
 181   10:50   1.06   81.3    27    2.2   250     5.2   806.5    0.00 
 181   11:00   1.06   81.1    26    1.7   258     4.1   806.5    0.00 
 181   11:10   1.05   82.4    23    2.2   227     8.8   806.3    0.00 
 181   11:20   0.91   82.5    21    2.3   162     6.0   806.3    0.00 
 181   11:30   0.90   83.3    22    2.1   141     6.4   806.3    0.00 
 181   11:40   1.09   81.6    28    5.3   320     8.2   806.3    0.00 
 181   11:50   0.84   81.2    26    5.3   293    12.4   806.3    0.00 
 181   12:00   0.91   81.0    26    8.8   228    14.9   806.2    0.00 
 181   12:10   1.02   81.0    27    9.1   235    16.4   806.0    0.00 
 181   12:20   1.02   81.0    29    9.0   232    13.5   805.9    0.00 
 181   12:30   1.05   81.1    27    9.7   234    14.5   805.8    0.00 
 181   12:40   1.05   80.5    29   10.6   245    15.3   805.7    0.00 
 181   12:50   1.04   80.6    30   10.6   248    16.4   805.7    0.00 
 181   13:00   1.03   80.6    28   11.9   236    16.5   805.7    0.00 
 181   13:10   1.01   80.9    27   11.2   235    17.0   805.6    0.00 
 181   13:20   1.00   80.9    29   10.6   237    14.6   805.5    0.00 
 181   13:30   0.99   80.7    26   11.4   246    19.3   805.4    0.00 
 181   13:40   0.98   81.6    26    8.9   244    16.9   805.4    0.00 
 181   13:50   0.96   81.2    24   11.7   224    17.4   805.4    0.00 
 181   14:00   0.94   81.5    26    8.4   234    14.0   805.4    0.00 
 181   14:10   0.93   81.5    26    9.6   237    17.0   805.3    0.00 
 181   14:20   0.91   81.5    26   10.8   226    15.4   805.3    0.00 
 181   14:30   0.85   80.9    25   10.5   255    16.9   805.3    0.00 
 181   14:40   0.86   80.9    24    9.7   241    17.3   805.2    0.00 
 181   14:50   0.83   80.7    25   10.9   249    19.0   805.1    0.00 
 181   15:00   0.81   80.5    26   10.8   248    16.0   805.1    0.00 
 181   15:10   0.79   80.4    26   11.1   266    20.3   805.1    0.00 
 181   15:20   0.75   80.4    25   10.9   262    16.5   805.1    0.00 
 181   15:30   0.72   80.1    26   12.0   264    18.0   805.0    0.00 
 181   15:40   0.71   79.9    28   10.3   259    17.0   805.0    0.00 
 181   15:50   0.66   79.5    27   11.7   263    18.7   804.9    0.00 
 181   16:00   0.63   79.4    27   11.0   262    16.8   804.8    0.00 
 181   16:10   0.59   79.4    29    9.0   254    15.3   804.7    0.00 
 181   16:20   0.57   78.9    28   12.0   251    18.6   804.6    0.00 
 181   16:30   0.53   78.6    28   11.0   255    17.2   804.6    0.00 
 181   16:40   0.51   78.1    30   10.9   250    16.9   804.5    0.00 
 181   16:50   0.48   77.7    31   10.7   253    18.7   804.3    0.00 
 181   17:00   0.44   77.5    30   12.1   251    19.9   804.2    0.00 
 181   17:10   0.39   77.1    30   11.1   252    18.1   804.2    0.00 
 181   17:20   0.34   76.7    30   12.4   248    18.0   804.1    0.00 
 181   17:30   0.34   76.3    30   12.1   250    19.1   804.1    0.00 
 181   17:40   0.29   76.0    29   11.9   252    19.4   804.1    0.00 
 181   17:50   0.26   75.2    30   11.0   246    17.8   804.2    0.00 
 181   18:00   0.25   75.0    29   11.5   255    17.0   804.2    0.00 
 181   18:10   0.25   74.4    29    9.2   256    14.8   804.2    0.00 
 181   18:20   0.16   73.7    30    8.2   261    13.5   804.4    0.00 
 181   18:30   0.16   73.3    29    8.7   260    14.3   804.4    0.00 
 181   18:40   0.13   72.2    30    6.9   272    11.8   804.4    0.00 
 181   18:50   0.10   71.4    29    6.7   272    11.1   804.5    0.00 
 181   19:00   0.05   70.5    29    6.0   280    10.4   804.5    0.00 
 181   19:10   0.02   68.7    31    4.0   284     7.3   804.6    0.00 
 181   19:20   0.01   68.8    29    2.3   257     4.7   804.8    0.00 
 181   19:30   0.01   67.4    30    5.5    35     8.0   804.9    0.00 
 181   19:40   0.00   68.5    27    8.1    28    15.0   805.0    0.00 
 181   19:50   0.00   68.6    26    6.2    49    11.8   805.0    0.00 
 181   20:00   0.00   69.3    25    4.7   358     8.8   805.1    0.00 
 181   20:10   0.00   74.0    18    3.7   263     9.4   805.1    0.00 
 181   20:20   0.00   74.7    18    5.4   219    13.4   805.1    0.00 
 181   20:30   0.00   67.2    32    4.6   144     8.0   805.3    0.00 
 181   20:40   0.00   65.9    29    3.5    74     5.6   805.3    0.00 
 181   20:50   0.00   65.0    30    4.1    28     7.2   805.3    0.00 
 181   21:00   0.00   62.8    33    3.0   138     5.3   805.4    0.00 
 181   21:10   0.00   64.4    30    1.6    64     4.3   805.5    0.00 
 181   21:20   0.00   61.8    36    2.5   120     4.7   805.6    0.00 
 181   21:30   0.00   60.8    38    5.1    94     6.2   805.7    0.00 
 181   21:40   0.00   56.2    50    3.6   136     6.0   805.9    0.00 
 181   21:50   0.00   58.5    49    4.0   233     5.8   805.8    0.00 
 181   22:00   0.00   57.0    48    4.6   190     6.2   805.9    0.00 
 181   22:10   0.00   57.6    50    2.3   258     6.1   806.1    0.00 
 181   22:20   0.00   58.0    48    2.9   251     6.3   806.1    0.00 

Return to Bridgeport Valley graphs page.


Western Regional Climate Center,wrcc@dri.edu